sensor_id;sensor_type;location;lat;lon;timestamp;temperature;humidity
19000;DHT22;9633;50.980;13.850;2023-08-24T00:00:08;15.10;99.90
19000;DHT22;9633;50.980;13.850;2023-08-24T00:01:42;15.10;99.90
19000;DHT22;9633;50.980;13.850;2023-08-24T00:03:14;15.10;99.90
19000;DHT22;9633;50.980;13.850;2023-08-24T00:04:48;15.20;99.90
19000;DHT22;9633;50.980;13.850;2023-08-24T00:06:21;15.10;99.90
19000;DHT22;9633;50.980;13.850;2023-08-24T00:07:54;15.20;99.90
19000;DHT22;9633;50.980;13.850;2023-08-24T00:09:26;15.10;99.90
19000;DHT22;9633;50.980;13.850;2023-08-24T00:11:00;15.10;99.90
19000;DHT22;9633;50.980;13.850;2023-08-24T00:12:33;15.00;99.90
19000;DHT22;9633;50.980;13.850;2023-08-24T00:14:06;15.10;99.90
19000;DHT22;9633;50.980;13.850;2023-08-24T00:15:40;15.10;99.90
19000;DHT22;9633;50.980;13.850;2023-08-24T00:17:13;15.10;99.90
19000;DHT22;9633;50.980;13.850;2023-08-24T00:18:46;15.10;99.90
19000;DHT22;9633;50.980;13.850;2023-08-24T00:20:19;15.10;99.90
19000;DHT22;9633;50.980;13.850;2023-08-24T00:21:52;15.10;99.90
19000;DHT22;9633;50.980;13.850;2023-08-24T00:23:25;15.10;99.90
19000;DHT22;9633;50.980;13.850;2023-08-24T00:24:57;15.00;99.90
19000;DHT22;9633;50.980;13.850;2023-08-24T00:26:31;15.00;99.90
19000;DHT22;9633;50.980;13.850;2023-08-24T00:28:04;14.90;99.90
19000;DHT22;9633;50.980;13.850;2023-08-24T00:29:37;14.90;99.90
19000;DHT22;9633;50.980;13.850;2023-08-24T00:31:11;14.90;99.90
19000;DHT22;9633;50.980;13.850;2023-08-24T00:32:44;14.90;99.90
19000;DHT22;9633;50.980;13.850;2023-08-24T00:34:17;14.80;99.90
19000;DHT22;9633;50.980;13.850;2023-08-24T00:35:49;14.80;99.90
19000;DHT22;9633;50.980;13.850;2023-08-24T00:37:22;14.80;99.90
19000;DHT22;9633;50.980;13.850;2023-08-24T00:38:55;14.80;99.90
19000;DHT22;9633;50.980;13.850;2023-08-24T00:40:28;14.80;99.90
19000;DHT22;9633;50.980;13.850;2023-08-24T00:42:00;14.80;99.90
19000;DHT22;9633;50.980;13.850;2023-08-24T00:43:34;14.80;99.90
19000;DHT22;9633;50.980;13.850;2023-08-24T00:45:09;14.80;99.90
19000;DHT22;9633;50.980;13.850;2023-08-24T00:46:44;14.80;99.90
19000;DHT22;9633;50.980;13.850;2023-08-24T00:48:17;14.80;99.90
19000;DHT22;9633;50.980;13.850;2023-08-24T00:49:51;14.80;99.90
19000;DHT22;9633;50.980;13.850;2023-08-24T00:51:23;14.80;99.90
19000;DHT22;9633;50.980;13.850;2023-08-24T00:52:57;14.80;99.90
19000;DHT22;9633;50.980;13.850;2023-08-24T00:54:30;14.80;99.90
19000;DHT22;9633;50.980;13.850;2023-08-24T00:56:04;14.80;99.90
19000;DHT22;9633;50.980;13.850;2023-08-24T00:57:38;14.80;99.90
19000;DHT22;9633;50.980;13.850;2023-08-24T00:59:12;14.80;99.90
19000;DHT22;9633;50.980;13.850;2023-08-24T01:00:46;14.80;99.90
19000;DHT22;9633;50.980;13.850;2023-08-24T01:02:19;14.90;99.90
19000;DHT22;9633;50.980;13.850;2023-08-24T01:03:53;14.80;99.90
19000;DHT22;9633;50.980;13.850;2023-08-24T01:05:25;14.80;99.90
19000;DHT22;9633;50.980;13.850;2023-08-24T01:06:59;14.80;99.90
19000;DHT22;9633;50.980;13.850;2023-08-24T01:08:31;14.80;99.90
19000;DHT22;9633;50.980;13.850;2023-08-24T01:10:07;14.80;99.90
19000;DHT22;9633;50.980;13.850;2023-08-24T01:11:45;14.80;99.90
19000;DHT22;9633;50.980;13.850;2023-08-24T01:13:27;14.80;99.90
19000;DHT22;9633;50.980;13.850;2023-08-24T01:15:05;14.90;99.90
19000;DHT22;9633;50.980;13.850;2023-08-24T01:16:43;14.90;99.90
19000;DHT22;9633;50.980;13.850;2023-08-24T01:18:18;14.80;99.90
19000;DHT22;9633;50.980;13.850;2023-08-24T01:19:53;14.80;99.90
19000;DHT22;9633;50.980;13.850;2023-08-24T01:21:26;14.80;99.90
19000;DHT22;9633;50.980;13.850;2023-08-24T01:23:09;14.80;99.90
19000;DHT22;9633;50.980;13.850;2023-08-24T01:24:53;14.80;99.90
19000;DHT22;9633;50.980;13.850;2023-08-24T01:26:27;14.80;99.90
19000;DHT22;9633;50.980;13.850;2023-08-24T01:28:02;14.80;99.90
19000;DHT22;9633;50.980;13.850;2023-08-24T01:29:35;14.80;99.90
19000;DHT22;9633;50.980;13.850;2023-08-24T01:31:10;14.90;99.90
19000;DHT22;9633;50.980;13.850;2023-08-24T01:32:45;14.80;99.90
19000;DHT22;9633;50.980;13.850;2023-08-24T01:34:18;14.70;99.90
19000;DHT22;9633;50.980;13.850;2023-08-24T01:35:50;14.80;99.90
19000;DHT22;9633;50.980;13.850;2023-08-24T01:37:23;14.80;99.90
19000;DHT22;9633;50.980;13.850;2023-08-24T01:39:02;14.80;99.90
19000;DHT22;9633;50.980;13.850;2023-08-24T01:40:48;14.80;99.90
19000;DHT22;9633;50.980;13.850;2023-08-24T01:42:29;14.90;99.90
19000;DHT22;9633;50.980;13.850;2023-08-24T01:44:04;14.90;99.90
19000;DHT22;9633;50.980;13.850;2023-08-24T01:45:41;14.90;99.90
19000;DHT22;9633;50.980;13.850;2023-08-24T01:47:14;14.80;99.90
19000;DHT22;9633;50.980;13.850;2023-08-24T01:48:48;14.90;99.90
19000;DHT22;9633;50.980;13.850;2023-08-24T01:50:21;14.80;99.90
19000;DHT22;9633;50.980;13.850;2023-08-24T01:51:55;14.80;99.90
19000;DHT22;9633;50.980;13.850;2023-08-24T01:53:30;14.90;99.90
19000;DHT22;9633;50.980;13.850;2023-08-24T01:55:04;14.80;99.90
19000;DHT22;9633;50.980;13.850;2023-08-24T01:56:36;14.90;99.90
19000;DHT22;9633;50.980;13.850;2023-08-24T01:58:11;14.80;99.90
19000;DHT22;9633;50.980;13.850;2023-08-24T01:59:43;14.90;99.90
19000;DHT22;9633;50.980;13.850;2023-08-24T02:01:16;14.80;99.90
19000;DHT22;9633;50.980;13.850;2023-08-24T02:02:48;14.80;99.90
19000;DHT22;9633;50.980;13.850;2023-08-24T02:04:22;14.80;99.90
19000;DHT22;9633;50.980;13.850;2023-08-24T02:05:54;14.80;99.90
19000;DHT22;9633;50.980;13.850;2023-08-24T02:07:27;14.90;99.90
19000;DHT22;9633;50.980;13.850;2023-08-24T02:09:00;14.90;99.90
19000;DHT22;9633;50.980;13.850;2023-08-24T02:10:33;14.90;99.90
19000;DHT22;9633;50.980;13.850;2023-08-24T02:12:08;15.00;99.90
19000;DHT22;9633;50.980;13.850;2023-08-24T02:13:42;14.90;99.90
19000;DHT22;9633;50.980;13.850;2023-08-24T02:15:15;14.90;99.90
19000;DHT22;9633;50.980;13.850;2023-08-24T02:16:49;14.80;99.90
19000;DHT22;9633;50.980;13.850;2023-08-24T02:18:21;14.70;99.90
19000;DHT22;9633;50.980;13.850;2023-08-24T02:19:54;14.70;99.90
19000;DHT22;9633;50.980;13.850;2023-08-24T02:21:27;14.60;99.90
19000;DHT22;9633;50.980;13.850;2023-08-24T02:23:00;14.60;99.90
19000;DHT22;9633;50.980;13.850;2023-08-24T02:24:32;14.40;99.90
19000;DHT22;9633;50.980;13.850;2023-08-24T02:26:05;14.40;99.90
19000;DHT22;9633;50.980;13.850;2023-08-24T02:27:38;14.30;99.90
19000;DHT22;9633;50.980;13.850;2023-08-24T02:29:12;14.40;99.90
19000;DHT22;9633;50.980;13.850;2023-08-24T02:30:46;14.50;99.90
19000;DHT22;9633;50.980;13.850;2023-08-24T02:32:18;14.50;99.90
19000;DHT22;9633;50.980;13.850;2023-08-24T02:33:51;14.50;99.90
19000;DHT22;9633;50.980;13.850;2023-08-24T02:35:23;14.50;99.90
19000;DHT22;9633;50.980;13.850;2023-08-24T02:36:57;14.50;99.90
19000;DHT22;9633;50.980;13.850;2023-08-24T02:38:29;14.50;99.90
19000;DHT22;9633;50.980;13.850;2023-08-24T02:40:05;14.40;99.90
19000;DHT22;9633;50.980;13.850;2023-08-24T02:41:37;14.40;99.90
19000;DHT22;9633;50.980;13.850;2023-08-24T02:43:11;14.40;99.90
19000;DHT22;9633;50.980;13.850;2023-08-24T02:44:45;14.40;99.90
19000;DHT22;9633;50.980;13.850;2023-08-24T02:46:20;14.50;99.90
19000;DHT22;9633;50.980;13.850;2023-08-24T02:47:55;14.50;99.90
19000;DHT22;9633;50.980;13.850;2023-08-24T02:49:28;14.50;99.90
19000;DHT22;9633;50.980;13.850;2023-08-24T02:51:03;14.50;99.90
19000;DHT22;9633;50.980;13.850;2023-08-24T02:52:37;14.40;99.90
19000;DHT22;9633;50.980;13.850;2023-08-24T02:54:09;14.50;99.90
19000;DHT22;9633;50.980;13.850;2023-08-24T02:55:42;14.40;99.90
19000;DHT22;9633;50.980;13.850;2023-08-24T02:57:15;14.40;99.90
19000;DHT22;9633;50.980;13.850;2023-08-24T02:58:48;14.30;99.90
19000;DHT22;9633;50.980;13.850;2023-08-24T03:00:21;14.30;99.90
19000;DHT22;9633;50.980;13.850;2023-08-24T03:01:55;14.40;99.90
19000;DHT22;9633;50.980;13.850;2023-08-24T03:03:27;14.30;99.90
19000;DHT22;9633;50.980;13.850;2023-08-24T03:05:01;14.30;99.90
19000;DHT22;9633;50.980;13.850;2023-08-24T03:06:33;14.30;99.90
19000;DHT22;9633;50.980;13.850;2023-08-24T03:08:06;14.30;99.90
19000;DHT22;9633;50.980;13.850;2023-08-24T03:09:38;14.30;99.90
19000;DHT22;9633;50.980;13.850;2023-08-24T03:11:12;14.20;99.90
19000;DHT22;9633;50.980;13.850;2023-08-24T03:12:44;14.20;99.90
19000;DHT22;9633;50.980;13.850;2023-08-24T03:14:18;14.10;99.90
19000;DHT22;9633;50.980;13.850;2023-08-24T03:15:53;14.10;99.90
19000;DHT22;9633;50.980;13.850;2023-08-24T03:17:27;14.10;99.90
19000;DHT22;9633;50.980;13.850;2023-08-24T03:19:01;14.20;99.90
19000;DHT22;9633;50.980;13.850;2023-08-24T03:20:34;14.30;99.90
19000;DHT22;9633;50.980;13.850;2023-08-24T03:22:06;14.30;99.90
19000;DHT22;9633;50.980;13.850;2023-08-24T03:23:39;14.20;99.90
19000;DHT22;9633;50.980;13.850;2023-08-24T03:25:12;14.20;99.90
19000;DHT22;9633;50.980;13.850;2023-08-24T03:26:45;14.20;99.90
19000;DHT22;9633;50.980;13.850;2023-08-24T03:28:17;14.20;99.90
19000;DHT22;9633;50.980;13.850;2023-08-24T03:29:53;14.20;99.90
19000;DHT22;9633;50.980;13.850;2023-08-24T03:31:27;14.20;99.90
19000;DHT22;9633;50.980;13.850;2023-08-24T03:33:00;14.20;99.90
19000;DHT22;9633;50.980;13.850;2023-08-24T03:34:34;14.20;99.90
19000;DHT22;9633;50.980;13.850;2023-08-24T03:36:06;14.10;99.90
19000;DHT22;9633;50.980;13.850;2023-08-24T03:37:39;14.10;99.90
19000;DHT22;9633;50.980;13.850;2023-08-24T03:39:12;14.10;99.90
19000;DHT22;9633;50.980;13.850;2023-08-24T03:40:48;14.10;99.90
19000;DHT22;9633;50.980;13.850;2023-08-24T03:42:20;14.10;99.90
19000;DHT22;9633;50.980;13.850;2023-08-24T03:43:54;14.10;99.90
19000;DHT22;9633;50.980;13.850;2023-08-24T03:45:27;14.10;99.90
19000;DHT22;9633;50.980;13.850;2023-08-24T03:47:00;14.10;99.90
19000;DHT22;9633;50.980;13.850;2023-08-24T03:48:34;14.00;99.90
19000;DHT22;9633;50.980;13.850;2023-08-24T03:50:07;14.00;99.90
19000;DHT22;9633;50.980;13.850;2023-08-24T03:51:40;14.00;99.90
19000;DHT22;9633;50.980;13.850;2023-08-24T03:53:13;14.00;99.90
19000;DHT22;9633;50.980;13.850;2023-08-24T03:54:45;13.90;99.90
19000;DHT22;9633;50.980;13.850;2023-08-24T03:56:18;13.90;99.90
19000;DHT22;9633;50.980;13.850;2023-08-24T03:57:51;13.90;99.90
19000;DHT22;9633;50.980;13.850;2023-08-24T03:59:30;13.90;99.90
19000;DHT22;9633;50.980;13.850;2023-08-24T04:01:02;13.90;99.90
19000;DHT22;9633;50.980;13.850;2023-08-24T04:02:37;13.90;99.90
19000;DHT22;9633;50.980;13.850;2023-08-24T04:04:10;13.80;99.90
19000;DHT22;9633;50.980;13.850;2023-08-24T04:05:43;13.90;99.90
19000;DHT22;9633;50.980;13.850;2023-08-24T04:07:15;13.90;99.90
19000;DHT22;9633;50.980;13.850;2023-08-24T04:08:52;13.90;99.90
19000;DHT22;9633;50.980;13.850;2023-08-24T04:10:25;14.00;99.90
19000;DHT22;9633;50.980;13.850;2023-08-24T04:11:58;14.00;99.90
19000;DHT22;9633;50.980;13.850;2023-08-24T04:13:31;14.00;99.90
19000;DHT22;9633;50.980;13.850;2023-08-24T04:15:04;14.10;99.90
19000;DHT22;9633;50.980;13.850;2023-08-24T04:16:37;14.10;99.90
19000;DHT22;9633;50.980;13.850;2023-08-24T04:18:11;14.10;99.90
19000;DHT22;9633;50.980;13.850;2023-08-24T04:19:44;14.10;99.90
19000;DHT22;9633;50.980;13.850;2023-08-24T04:21:17;14.20;99.90
19000;DHT22;9633;50.980;13.850;2023-08-24T04:22:50;14.20;99.90
19000;DHT22;9633;50.980;13.850;2023-08-24T04:24:23;14.20;99.90
19000;DHT22;9633;50.980;13.850;2023-08-24T04:25:57;14.20;99.90
19000;DHT22;9633;50.980;13.850;2023-08-24T04:27:30;14.20;99.90
19000;DHT22;9633;50.980;13.850;2023-08-24T04:29:02;14.30;99.90
19000;DHT22;9633;50.980;13.850;2023-08-24T04:30:36;14.50;99.90
19000;DHT22;9633;50.980;13.850;2023-08-24T04:32:08;14.60;99.90
19000;DHT22;9633;50.980;13.850;2023-08-24T04:33:43;14.70;99.90
19000;DHT22;9633;50.980;13.850;2023-08-24T04:35:16;14.70;99.90
19000;DHT22;9633;50.980;13.850;2023-08-24T04:36:48;14.80;99.90
19000;DHT22;9633;50.980;13.850;2023-08-24T04:38:22;14.90;99.90
19000;DHT22;9633;50.980;13.850;2023-08-24T04:39:55;14.90;99.90
19000;DHT22;9633;50.980;13.850;2023-08-24T04:41:27;14.90;99.90
19000;DHT22;9633;50.980;13.850;2023-08-24T04:43:00;15.00;99.90
19000;DHT22;9633;50.980;13.850;2023-08-24T04:44:33;15.10;99.90
19000;DHT22;9633;50.980;13.850;2023-08-24T04:46:06;15.10;99.90
19000;DHT22;9633;50.980;13.850;2023-08-24T04:47:39;15.20;99.90
19000;DHT22;9633;50.980;13.850;2023-08-24T04:49:13;15.20;99.90
19000;DHT22;9633;50.980;13.850;2023-08-24T04:50:46;15.20;99.90
19000;DHT22;9633;50.980;13.850;2023-08-24T04:52:19;15.30;99.90
19000;DHT22;9633;50.980;13.850;2023-08-24T04:53:52;15.40;99.90
19000;DHT22;9633;50.980;13.850;2023-08-24T04:55:24;15.40;99.90
19000;DHT22;9633;50.980;13.850;2023-08-24T04:56:57;15.60;99.90
19000;DHT22;9633;50.980;13.850;2023-08-24T04:58:33;15.70;99.90
19000;DHT22;9633;50.980;13.850;2023-08-24T05:00:07;15.80;99.90
19000;DHT22;9633;50.980;13.850;2023-08-24T05:01:39;16.00;99.90
19000;DHT22;9633;50.980;13.850;2023-08-24T05:03:13;16.10;99.90
19000;DHT22;9633;50.980;13.850;2023-08-24T05:04:46;16.30;99.90
19000;DHT22;9633;50.980;13.850;2023-08-24T05:06:21;16.40;99.90
19000;DHT22;9633;50.980;13.850;2023-08-24T05:07:53;16.60;99.90
19000;DHT22;9633;50.980;13.850;2023-08-24T05:09:27;16.90;99.90
19000;DHT22;9633;50.980;13.850;2023-08-24T05:11:00;17.40;99.90
19000;DHT22;9633;50.980;13.850;2023-08-24T05:12:33;18.20;99.90
19000;DHT22;9633;50.980;13.850;2023-08-24T05:14:07;19.10;99.90
19000;DHT22;9633;50.980;13.850;2023-08-24T05:15:40;19.80;99.90
19000;DHT22;9633;50.980;13.850;2023-08-24T05:17:12;20.40;99.90
19000;DHT22;9633;50.980;13.850;2023-08-24T05:18:45;20.50;99.90
19000;DHT22;9633;50.980;13.850;2023-08-24T05:20:19;20.20;99.90
19000;DHT22;9633;50.980;13.850;2023-08-24T05:21:53;19.70;99.90
19000;DHT22;9633;50.980;13.850;2023-08-24T05:23:26;19.00;99.90
19000;DHT22;9633;50.980;13.850;2023-08-24T05:24:58;18.60;99.90
19000;DHT22;9633;50.980;13.850;2023-08-24T05:26:31;18.30;99.90
19000;DHT22;9633;50.980;13.850;2023-08-24T05:28:04;18.10;99.90
19000;DHT22;9633;50.980;13.850;2023-08-24T05:29:38;18.00;99.90
19000;DHT22;9633;50.980;13.850;2023-08-24T05:31:10;17.90;99.90
19000;DHT22;9633;50.980;13.850;2023-08-24T05:32:43;18.00;99.90
19000;DHT22;9633;50.980;13.850;2023-08-24T05:34:16;18.00;99.90
19000;DHT22;9633;50.980;13.850;2023-08-24T05:35:51;18.10;99.90
19000;DHT22;9633;50.980;13.850;2023-08-24T05:37:23;18.20;99.90
19000;DHT22;9633;50.980;13.850;2023-08-24T05:38:57;18.30;99.90
19000;DHT22;9633;50.980;13.850;2023-08-24T05:40:33;18.40;99.90
19000;DHT22;9633;50.980;13.850;2023-08-24T05:42:07;18.40;99.90
19000;DHT22;9633;50.980;13.850;2023-08-24T05:43:40;18.60;99.90
19000;DHT22;9633;50.980;13.850;2023-08-24T05:45:13;19.30;99.90
19000;DHT22;9633;50.980;13.850;2023-08-24T05:46:47;20.20;99.90
19000;DHT22;9633;50.980;13.850;2023-08-24T05:48:20;20.90;99.90
19000;DHT22;9633;50.980;13.850;2023-08-24T05:49:52;21.60;99.90
19000;DHT22;9633;50.980;13.850;2023-08-24T05:51:26;22.40;99.90
19000;DHT22;9633;50.980;13.850;2023-08-24T05:53:00;22.80;99.90
19000;DHT22;9633;50.980;13.850;2023-08-24T05:54:32;23.50;99.90
19000;DHT22;9633;50.980;13.850;2023-08-24T05:56:05;23.90;99.90
19000;DHT22;9633;50.980;13.850;2023-08-24T05:57:37;24.20;99.90
19000;DHT22;9633;50.980;13.850;2023-08-24T05:59:11;24.20;99.90
19000;DHT22;9633;50.980;13.850;2023-08-24T06:00:43;24.30;99.90
19000;DHT22;9633;50.980;13.850;2023-08-24T06:02:16;24.30;98.80
19000;DHT22;9633;50.980;13.850;2023-08-24T06:03:50;24.40;99.00
19000;DHT22;9633;50.980;13.850;2023-08-24T06:05:23;24.70;99.90
19000;DHT22;9633;50.980;13.850;2023-08-24T06:06:57;24.90;99.90
19000;DHT22;9633;50.980;13.850;2023-08-24T06:08:30;25.00;93.00
19000;DHT22;9633;50.980;13.850;2023-08-24T06:10:03;25.00;93.50
19000;DHT22;9633;50.980;13.850;2023-08-24T06:11:37;25.20;93.20
19000;DHT22;9633;50.980;13.850;2023-08-24T06:13:09;25.80;92.80
19000;DHT22;9633;50.980;13.850;2023-08-24T06:14:42;26.40;93.30
19000;DHT22;9633;50.980;13.850;2023-08-24T06:16:15;26.50;95.10
19000;DHT22;9633;50.980;13.850;2023-08-24T06:17:48;26.80;96.20
19000;DHT22;9633;50.980;13.850;2023-08-24T06:19:22;27.00;96.50
19000;DHT22;9633;50.980;13.850;2023-08-24T06:20:55;26.80;97.20
19000;DHT22;9633;50.980;13.850;2023-08-24T06:22:30;26.90;97.30
19000;DHT22;9633;50.980;13.850;2023-08-24T06:24:02;27.20;99.90
19000;DHT22;9633;50.980;13.850;2023-08-24T06:25:36;27.20;70.10
19000;DHT22;9633;50.980;13.850;2023-08-24T06:27:09;27.20;76.80
19000;DHT22;9633;50.980;13.850;2023-08-24T06:28:41;27.70;78.70
19000;DHT22;9633;50.980;13.850;2023-08-24T06:30:15;27.80;81.30
19000;DHT22;9633;50.980;13.850;2023-08-24T06:31:47;27.70;85.00
19000;DHT22;9633;50.980;13.850;2023-08-24T06:33:20;28.10;90.80
19000;DHT22;9633;50.980;13.850;2023-08-24T06:34:53;28.60;91.90
19000;DHT22;9633;50.980;13.850;2023-08-24T06:36:26;28.70;94.40
19000;DHT22;9633;50.980;13.850;2023-08-24T06:38:03;28.80;95.50
19000;DHT22;9633;50.980;13.850;2023-08-24T06:39:35;28.50;95.10
19000;DHT22;9633;50.980;13.850;2023-08-24T06:41:08;28.30;95.90
19000;DHT22;9633;50.980;13.850;2023-08-24T06:42:44;28.50;95.60
19000;DHT22;9633;50.980;13.850;2023-08-24T06:44:17;28.60;95.90
19000;DHT22;9633;50.980;13.850;2023-08-24T06:45:49;28.50;95.90
19000;DHT22;9633;50.980;13.850;2023-08-24T06:47:22;28.40;93.40
19000;DHT22;9633;50.980;13.850;2023-08-24T06:48:54;28.60;93.90
19000;DHT22;9633;50.980;13.850;2023-08-24T06:50:28;28.90;94.30
19000;DHT22;9633;50.980;13.850;2023-08-24T06:52:01;29.10;94.20
19000;DHT22;9633;50.980;13.850;2023-08-24T06:53:36;29.40;95.20
19000;DHT22;9633;50.980;13.850;2023-08-24T06:55:09;29.20;96.30
19000;DHT22;9633;50.980;13.850;2023-08-24T06:56:43;29.60;96.80
19000;DHT22;9633;50.980;13.850;2023-08-24T06:58:15;29.90;96.80
19000;DHT22;9633;50.980;13.850;2023-08-24T06:59:49;29.90;97.00
19000;DHT22;9633;50.980;13.850;2023-08-24T07:01:21;29.70;97.10
19000;DHT22;9633;50.980;13.850;2023-08-24T07:02:55;30.10;97.10
19000;DHT22;9633;50.980;13.850;2023-08-24T07:04:29;30.20;97.20
19000;DHT22;9633;50.980;13.850;2023-08-24T07:06:01;30.50;97.90
19000;DHT22;9633;50.980;13.850;2023-08-24T07:07:36;30.80;97.60
19000;DHT22;9633;50.980;13.850;2023-08-24T07:09:09;30.60;98.60
19000;DHT22;9633;50.980;13.850;2023-08-24T07:10:43;30.50;99.00
19000;DHT22;9633;50.980;13.850;2023-08-24T07:12:15;31.10;99.20
19000;DHT22;9633;50.980;13.850;2023-08-24T07:13:48;30.90;99.90
19000;DHT22;9633;50.980;13.850;2023-08-24T07:15:22;30.60;99.50
19000;DHT22;9633;50.980;13.850;2023-08-24T07:16:55;31.10;99.50
19000;DHT22;9633;50.980;13.850;2023-08-24T07:18:27;31.10;98.50
19000;DHT22;9633;50.980;13.850;2023-08-24T07:20:00;30.50;98.60
19000;DHT22;9633;50.980;13.850;2023-08-24T07:21:32;30.90;99.00
19000;DHT22;9633;50.980;13.850;2023-08-24T07:23:06;31.10;99.80
19000;DHT22;9633;50.980;13.850;2023-08-24T07:24:40;31.30;99.10
19000;DHT22;9633;50.980;13.850;2023-08-24T07:26:17;31.70;99.20
19000;DHT22;9633;50.980;13.850;2023-08-24T07:27:50;31.40;99.90
19000;DHT22;9633;50.980;13.850;2023-08-24T07:29:23;31.30;99.60
19000;DHT22;9633;50.980;13.850;2023-08-24T07:30:56;31.20;99.90
19000;DHT22;9633;50.980;13.850;2023-08-24T07:32:30;31.30;99.90
19000;DHT22;9633;50.980;13.850;2023-08-24T07:34:02;31.50;99.80
19000;DHT22;9633;50.980;13.850;2023-08-24T07:35:36;31.30;99.90
19000;DHT22;9633;50.980;13.850;2023-08-24T07:37:08;31.20;99.90
19000;DHT22;9633;50.980;13.850;2023-08-24T07:38:42;31.20;99.90
19000;DHT22;9633;50.980;13.850;2023-08-24T07:40:15;30.90;99.90
19000;DHT22;9633;50.980;13.850;2023-08-24T07:41:49;31.40;99.80
19000;DHT22;9633;50.980;13.850;2023-08-24T07:43:21;31.10;99.00
19000;DHT22;9633;50.980;13.850;2023-08-24T07:44:54;31.10;99.70
19000;DHT22;9633;50.980;13.850;2023-08-24T07:46:27;30.90;99.90
19000;DHT22;9633;50.980;13.850;2023-08-24T07:47:59;30.50;99.90
19000;DHT22;9633;50.980;13.850;2023-08-24T07:49:33;30.20;99.90
19000;DHT22;9633;50.980;13.850;2023-08-24T07:51:05;30.00;99.90
19000;DHT22;9633;50.980;13.850;2023-08-24T07:52:38;30.10;99.90
19000;DHT22;9633;50.980;13.850;2023-08-24T07:54:10;29.80;99.90
19000;DHT22;9633;50.980;13.850;2023-08-24T07:55:45;29.40;99.90
19000;DHT22;9633;50.980;13.850;2023-08-24T07:57:17;29.70;99.90
19000;DHT22;9633;50.980;13.850;2023-08-24T07:58:51;29.70;99.90
19000;DHT22;9633;50.980;13.850;2023-08-24T08:00:24;29.70;99.90
19000;DHT22;9633;50.980;13.850;2023-08-24T08:01:57;29.60;99.90
19000;DHT22;9633;50.980;13.850;2023-08-24T08:03:30;29.50;99.90
19000;DHT22;9633;50.980;13.850;2023-08-24T08:05:03;29.30;99.90
19000;DHT22;9633;50.980;13.850;2023-08-24T08:06:38;29.30;99.90
19000;DHT22;9633;50.980;13.850;2023-08-24T08:08:11;29.40;99.90
19000;DHT22;9633;50.980;13.850;2023-08-24T08:09:44;29.40;99.90
19000;DHT22;9633;50.980;13.850;2023-08-24T08:11:18;29.30;99.90
19000;DHT22;9633;50.980;13.850;2023-08-24T08:12:50;29.40;99.90
19000;DHT22;9633;50.980;13.850;2023-08-24T08:14:26;29.70;99.90
19000;DHT22;9633;50.980;13.850;2023-08-24T08:16:01;30.00;99.90
19000;DHT22;9633;50.980;13.850;2023-08-24T08:17:36;30.20;99.90
19000;DHT22;9633;50.980;13.850;2023-08-24T08:19:09;30.40;99.90
19000;DHT22;9633;50.980;13.850;2023-08-24T08:20:42;30.60;99.90
19000;DHT22;9633;50.980;13.850;2023-08-24T08:22:15;30.70;99.60
19000;DHT22;9633;50.980;13.850;2023-08-24T08:23:48;30.90;99.50
19000;DHT22;9633;50.980;13.850;2023-08-24T08:25:21;30.80;99.90
19000;DHT22;9633;50.980;13.850;2023-08-24T08:26:56;30.50;99.90
19000;DHT22;9633;50.980;13.850;2023-08-24T08:28:28;30.40;99.90
19000;DHT22;9633;50.980;13.850;2023-08-24T08:30:01;30.30;99.90
19000;DHT22;9633;50.980;13.850;2023-08-24T08:31:37;30.70;99.90
19000;DHT22;9633;50.980;13.850;2023-08-24T08:33:10;31.00;99.90
19000;DHT22;9633;50.980;13.850;2023-08-24T08:34:42;31.30;99.90
19000;DHT22;9633;50.980;13.850;2023-08-24T08:36:15;31.50;99.90
19000;DHT22;9633;50.980;13.850;2023-08-24T08:37:47;31.70;99.90
19000;DHT22;9633;50.980;13.850;2023-08-24T08:39:22;32.20;99.90
19000;DHT22;9633;50.980;13.850;2023-08-24T08:40:56;32.50;99.90
19000;DHT22;9633;50.980;13.850;2023-08-24T08:42:35;32.50;99.90
19000;DHT22;9633;50.980;13.850;2023-08-24T08:44:10;32.70;99.90
19000;DHT22;9633;50.980;13.850;2023-08-24T08:45:44;33.00;99.90
19000;DHT22;9633;50.980;13.850;2023-08-24T08:47:17;32.80;99.90
19000;DHT22;9633;50.980;13.850;2023-08-24T08:48:52;32.90;99.90
19000;DHT22;9633;50.980;13.850;2023-08-24T08:50:25;33.50;99.90
19000;DHT22;9633;50.980;13.850;2023-08-24T08:52:02;33.90;95.50
19000;DHT22;9633;50.980;13.850;2023-08-24T08:53:35;33.20;97.50
19000;DHT22;9633;50.980;13.850;2023-08-24T08:55:09;33.10;97.60
19000;DHT22;9633;50.980;13.850;2023-08-24T08:56:43;33.80;96.80
19000;DHT22;9633;50.980;13.850;2023-08-24T08:58:18;33.90;97.40
19000;DHT22;9633;50.980;13.850;2023-08-24T08:59:52;33.90;97.90
19000;DHT22;9633;50.980;13.850;2023-08-24T09:01:25;34.30;98.50
19000;DHT22;9633;50.980;13.850;2023-08-24T09:02:59;34.50;98.90
19000;DHT22;9633;50.980;13.850;2023-08-24T09:04:33;34.40;98.40
19000;DHT22;9633;50.980;13.850;2023-08-24T09:06:05;34.70;98.60
19000;DHT22;9633;50.980;13.850;2023-08-24T09:07:39;34.80;73.80
19000;DHT22;9633;50.980;13.850;2023-08-24T09:09:12;34.90;73.90
19000;DHT22;9633;50.980;13.850;2023-08-24T09:10:45;35.20;73.50
19000;DHT22;9633;50.980;13.850;2023-08-24T09:12:18;35.30;74.90
19000;DHT22;9633;50.980;13.850;2023-08-24T09:13:52;33.80;73.20
19000;DHT22;9633;50.980;13.850;2023-08-24T09:15:25;33.10;74.80
19000;DHT22;9633;50.980;13.850;2023-08-24T09:17:01;31.70;75.30
19000;DHT22;9633;50.980;13.850;2023-08-24T09:18:37;32.30;78.40
19000;DHT22;9633;50.980;13.850;2023-08-24T09:20:11;33.10;75.60
19000;DHT22;9633;50.980;13.850;2023-08-24T09:21:43;33.50;74.00
19000;DHT22;9633;50.980;13.850;2023-08-24T09:23:19;33.40;74.10
19000;DHT22;9633;50.980;13.850;2023-08-24T09:24:52;33.30;73.70
19000;DHT22;9633;50.980;13.850;2023-08-24T09:26:29;33.70;74.00
19000;DHT22;9633;50.980;13.850;2023-08-24T09:28:03;34.30;72.10
19000;DHT22;9633;50.980;13.850;2023-08-24T09:29:41;34.60;73.50
19000;DHT22;9633;50.980;13.850;2023-08-24T09:31:14;34.70;71.00
19000;DHT22;9633;50.980;13.850;2023-08-24T09:32:47;35.00;75.20
19000;DHT22;9633;50.980;13.850;2023-08-24T09:34:20;34.90;73.20
19000;DHT22;9633;50.980;13.850;2023-08-24T09:35:54;34.00;73.40
19000;DHT22;9633;50.980;13.850;2023-08-24T09:37:34;33.90;73.90
19000;DHT22;9633;50.980;13.850;2023-08-24T09:39:07;33.90;71.80
19000;DHT22;9633;50.980;13.850;2023-08-24T09:40:44;33.90;76.30
19000;DHT22;9633;50.980;13.850;2023-08-24T09:42:24;33.60;72.70
19000;DHT22;9633;50.980;13.850;2023-08-24T09:44:03;34.30;72.10
19000;DHT22;9633;50.980;13.850;2023-08-24T09:45:36;34.70;62.50
19000;DHT22;9633;50.980;13.850;2023-08-24T09:47:10;35.00;65.50
19000;DHT22;9633;50.980;13.850;2023-08-24T09:48:42;35.10;63.40
19000;DHT22;9633;50.980;13.850;2023-08-24T09:50:16;35.60;61.70